sensor_id;sensor_type;location;lat;lon;timestamp;P1;durP1;ratioP1;P2;durP2;ratioP2
5710;SDS011;61291;52.524;13.422;2023-04-29T00:02:25;64.90;;;60.60;;
5710;SDS011;61291;52.524;13.422;2023-04-29T00:04:52;68.00;;;62.97;;
5710;SDS011;61291;52.524;13.422;2023-04-29T00:07:18;66.83;;;62.13;;
5710;SDS011;61291;52.524;13.422;2023-04-29T00:09:44;67.83;;;63.03;;
5710;SDS011;61291;52.524;13.422;2023-04-29T00:12:09;68.57;;;63.60;;
5710;SDS011;61291;52.524;13.422;2023-04-29T00:14:35;67.73;;;62.10;;
5710;SDS011;61291;52.524;13.422;2023-04-29T00:17:00;65.40;;;61.10;;
5710;SDS011;61291;52.524;13.422;2023-04-29T00:19:26;65.40;;;60.80;;
5710;SDS011;61291;52.524;13.422;2023-04-29T00:21:52;65.27;;;60.77;;
5710;SDS011;61291;52.524;13.422;2023-04-29T00:24:18;66.07;;;61.53;;
5710;SDS011;61291;52.524;13.422;2023-04-29T00:26:44;64.93;;;60.33;;
5710;SDS011;61291;52.524;13.422;2023-04-29T00:29:09;64.47;;;59.97;;
5710;SDS011;61291;52.524;13.422;2023-04-29T00:31:35;66.00;;;60.20;;
5710;SDS011;61291;52.524;13.422;2023-04-29T00:34:01;67.20;;;62.50;;
5710;SDS011;61291;52.524;13.422;2023-04-29T00:36:26;56.13;;;52.20;;
5710;SDS011;61291;52.524;13.422;2023-04-29T00:38:52;68.43;;;63.40;;
5710;SDS011;61291;52.524;13.422;2023-04-29T00:41:18;69.03;;;64.30;;
5710;SDS011;61291;52.524;13.422;2023-04-29T00:43:44;66.20;;;61.50;;
5710;SDS011;61291;52.524;13.422;2023-04-29T00:46:10;64.20;;;59.13;;
5710;SDS011;61291;52.524;13.422;2023-04-29T00:48:35;65.53;;;61.10;;
5710;SDS011;61291;52.524;13.422;2023-04-29T00:51:01;66.30;;;61.73;;
5710;SDS011;61291;52.524;13.422;2023-04-29T00:53:28;66.93;;;62.10;;
5710;SDS011;61291;52.524;13.422;2023-04-29T00:55:54;68.17;;;63.60;;
5710;SDS011;61291;52.524;13.422;2023-04-29T00:58:20;67.53;;;62.77;;
5710;SDS011;61291;52.524;13.422;2023-04-29T01:00:47;67.07;;;62.53;;
5710;SDS011;61291;52.524;13.422;2023-04-29T01:03:13;67.00;;;62.60;;
5710;SDS011;61291;52.524;13.422;2023-04-29T01:05:39;69.70;;;64.33;;
5710;SDS011;61291;52.524;13.422;2023-04-29T01:08:09;69.57;;;64.63;;
5710;SDS011;61291;52.524;13.422;2023-04-29T01:11:06;68.17;;;63.47;;
5710;SDS011;61291;52.524;13.422;2023-04-29T01:13:45;68.37;;;63.20;;
5710;SDS011;61291;52.524;13.422;2023-04-29T01:16:24;67.20;;;62.00;;
5710;SDS011;61291;52.524;13.422;2023-04-29T01:19:14;67.53;;;62.20;;
5710;SDS011;61291;52.524;13.422;2023-04-29T01:21:47;60.50;;;56.10;;
5710;SDS011;61291;52.524;13.422;2023-04-29T01:24:14;71.93;;;66.53;;
5710;SDS011;61291;52.524;13.422;2023-04-29T01:26:41;72.70;;;66.37;;
5710;SDS011;61291;52.524;13.422;2023-04-29T01:32:05;74.50;;;68.50;;
5710;SDS011;61291;52.524;13.422;2023-04-29T01:34:41;72.60;;;67.30;;
5710;SDS011;61291;52.524;13.422;2023-04-29T01:37:27;75.77;;;69.93;;
5710;SDS011;61291;52.524;13.422;2023-04-29T01:42:45;79.30;;;72.80;;
5710;SDS011;61291;52.524;13.422;2023-04-29T01:45:15;82.17;;;75.20;;
5710;SDS011;61291;52.524;13.422;2023-04-29T01:47:43;79.47;;;73.30;;
5710;SDS011;61291;52.524;13.422;2023-04-29T01:50:11;80.17;;;73.67;;
5710;SDS011;61291;52.524;13.422;2023-04-29T01:52:36;79.93;;;73.33;;
5710;SDS011;61291;52.524;13.422;2023-04-29T01:55:02;78.47;;;72.33;;
5710;SDS011;61291;52.524;13.422;2023-04-29T01:57:28;80.07;;;74.07;;
5710;SDS011;61291;52.524;13.422;2023-04-29T01:59:53;80.67;;;74.67;;
5710;SDS011;61291;52.524;13.422;2023-04-29T02:02:21;82.00;;;75.37;;
5710;SDS011;61291;52.524;13.422;2023-04-29T02:04:47;78.20;;;72.50;;
5710;SDS011;61291;52.524;13.422;2023-04-29T02:07:13;83.10;;;76.97;;
5710;SDS011;61291;52.524;13.422;2023-04-29T02:09:38;81.53;;;75.53;;
5710;SDS011;61291;52.524;13.422;2023-04-29T02:12:04;83.20;;;77.00;;
5710;SDS011;61291;52.524;13.422;2023-04-29T02:14:30;80.47;;;74.20;;
5710;SDS011;61291;52.524;13.422;2023-04-29T02:16:55;82.80;;;75.93;;
5710;SDS011;61291;52.524;13.422;2023-04-29T02:19:21;71.40;;;65.60;;
5710;SDS011;61291;52.524;13.422;2023-04-29T02:21:46;83.70;;;76.07;;
5710;SDS011;61291;52.524;13.422;2023-04-29T02:24:12;86.30;;;78.83;;
5710;SDS011;61291;52.524;13.422;2023-04-29T02:26:37;84.07;;;77.57;;
5710;SDS011;61291;52.524;13.422;2023-04-29T02:29:03;85.90;;;78.50;;
5710;SDS011;61291;52.524;13.422;2023-04-29T02:31:28;84.00;;;77.33;;
5710;SDS011;61291;52.524;13.422;2023-04-29T02:33:54;84.63;;;77.90;;
5710;SDS011;61291;52.524;13.422;2023-04-29T02:36:20;85.87;;;79.00;;
5710;SDS011;61291;52.524;13.422;2023-04-29T02:38:45;85.10;;;78.43;;
5710;SDS011;61291;52.524;13.422;2023-04-29T02:41:15;83.70;;;76.77;;
5710;SDS011;61291;52.524;13.422;2023-04-29T02:43:43;86.37;;;79.27;;
5710;SDS011;61291;52.524;13.422;2023-04-29T02:46:09;85.50;;;78.40;;
5710;SDS011;61291;52.524;13.422;2023-04-29T02:48:34;86.67;;;79.70;;
5710;SDS011;61291;52.524;13.422;2023-04-29T02:51:00;89.37;;;82.20;;
5710;SDS011;61291;52.524;13.422;2023-04-29T02:53:26;89.70;;;82.17;;
5710;SDS011;61291;52.524;13.422;2023-04-29T02:55:51;87.47;;;80.03;;
5710;SDS011;61291;52.524;13.422;2023-04-29T02:58:17;92.40;;;84.70;;
5710;SDS011;61291;52.524;13.422;2023-04-29T03:00:42;90.60;;;83.13;;
5710;SDS011;61291;52.524;13.422;2023-04-29T03:03:08;89.57;;;82.40;;
5710;SDS011;61291;52.524;13.422;2023-04-29T03:05:34;91.23;;;83.37;;
5710;SDS011;61291;52.524;13.422;2023-04-29T03:07:59;90.53;;;83.10;;
5710;SDS011;61291;52.524;13.422;2023-04-29T03:10:25;84.40;;;77.70;;
5710;SDS011;61291;52.524;13.422;2023-04-29T03:12:51;86.47;;;79.47;;
5710;SDS011;61291;52.524;13.422;2023-04-29T03:15:17;88.53;;;81.20;;
5710;SDS011;61291;52.524;13.422;2023-04-29T03:17:43;93.77;;;86.33;;
5710;SDS011;61291;52.524;13.422;2023-04-29T03:20:10;93.87;;;86.10;;
5710;SDS011;61291;52.524;13.422;2023-04-29T03:22:36;89.93;;;82.60;;
5710;SDS011;61291;52.524;13.422;2023-04-29T03:25:01;93.77;;;86.30;;
5710;SDS011;61291;52.524;13.422;2023-04-29T03:27:27;95.17;;;87.40;;
5710;SDS011;61291;52.524;13.422;2023-04-29T03:29:53;92.37;;;84.77;;
5710;SDS011;61291;52.524;13.422;2023-04-29T03:32:18;94.40;;;86.23;;
5710;SDS011;61291;52.524;13.422;2023-04-29T03:34:43;95.17;;;87.77;;
5710;SDS011;61291;52.524;13.422;2023-04-29T03:37:09;103.90;;;95.43;;
5710;SDS011;61291;52.524;13.422;2023-04-29T03:39:35;95.27;;;87.53;;
5710;SDS011;61291;52.524;13.422;2023-04-29T03:42:00;94.83;;;87.47;;
5710;SDS011;61291;52.524;13.422;2023-04-29T03:44:26;95.57;;;87.90;;
5710;SDS011;61291;52.524;13.422;2023-04-29T03:46:53;94.40;;;86.90;;
5710;SDS011;61291;52.524;13.422;2023-04-29T03:49:18;95.83;;;88.07;;
5710;SDS011;61291;52.524;13.422;2023-04-29T03:51:44;95.93;;;87.67;;
5710;SDS011;61291;52.524;13.422;2023-04-29T03:54:10;98.17;;;89.93;;
5710;SDS011;61291;52.524;13.422;2023-04-29T03:56:37;97.67;;;89.57;;
5710;SDS011;61291;52.524;13.422;2023-04-29T03:59:02;98.17;;;90.37;;
5710;SDS011;61291;52.524;13.422;2023-04-29T04:01:28;101.50;;;92.70;;
5710;SDS011;61291;52.524;13.422;2023-04-29T04:03:53;94.93;;;86.83;;
5710;SDS011;61291;52.524;13.422;2023-04-29T04:06:19;94.17;;;85.87;;
5710;SDS011;61291;52.524;13.422;2023-04-29T04:08:44;99.97;;;90.47;;
5710;SDS011;61291;52.524;13.422;2023-04-29T04:11:10;101.93;;;91.67;;
5710;SDS011;61291;52.524;13.422;2023-04-29T04:13:38;101.17;;;92.60;;
5710;SDS011;61291;52.524;13.422;2023-04-29T04:16:11;96.90;;;88.47;;
5710;SDS011;61291;52.524;13.422;2023-04-29T04:18:37;99.60;;;90.60;;
5710;SDS011;61291;52.524;13.422;2023-04-29T04:21:06;99.37;;;89.83;;
5710;SDS011;61291;52.524;13.422;2023-04-29T04:23:32;101.70;;;92.03;;
5710;SDS011;61291;52.524;13.422;2023-04-29T04:25:58;98.00;;;88.83;;
5710;SDS011;61291;52.524;13.422;2023-04-29T04:28:23;97.27;;;88.10;;
5710;SDS011;61291;52.524;13.422;2023-04-29T04:30:49;95.07;;;86.40;;
5710;SDS011;61291;52.524;13.422;2023-04-29T04:33:14;99.80;;;90.40;;
5710;SDS011;61291;52.524;13.422;2023-04-29T04:35:40;94.77;;;86.17;;
5710;SDS011;61291;52.524;13.422;2023-04-29T04:38:06;96.90;;;87.90;;
5710;SDS011;61291;52.524;13.422;2023-04-29T04:40:33;99.93;;;90.60;;
5710;SDS011;61291;52.524;13.422;2023-04-29T04:42:58;100.57;;;91.43;;
5710;SDS011;61291;52.524;13.422;2023-04-29T04:45:24;96.40;;;87.40;;
5710;SDS011;61291;52.524;13.422;2023-04-29T04:47:52;94.20;;;85.70;;
5710;SDS011;61291;52.524;13.422;2023-04-29T04:50:18;100.97;;;91.73;;
5710;SDS011;61291;52.524;13.422;2023-04-29T04:52:44;99.60;;;89.23;;
5710;SDS011;61291;52.524;13.422;2023-04-29T04:55:09;98.10;;;88.07;;
5710;SDS011;61291;52.524;13.422;2023-04-29T04:57:35;106.20;;;95.70;;
5710;SDS011;61291;52.524;13.422;2023-04-29T05:00:01;99.77;;;90.47;;
5710;SDS011;61291;52.524;13.422;2023-04-29T05:02:27;104.43;;;93.57;;
5710;SDS011;61291;52.524;13.422;2023-04-29T05:04:53;97.07;;;87.37;;
5710;SDS011;61291;52.524;13.422;2023-04-29T05:07:18;100.33;;;90.60;;
5710;SDS011;61291;52.524;13.422;2023-04-29T05:09:44;102.30;;;92.30;;
5710;SDS011;61291;52.524;13.422;2023-04-29T05:12:09;107.30;;;96.40;;
5710;SDS011;61291;52.524;13.422;2023-04-29T05:14:35;105.03;;;94.63;;
5710;SDS011;61291;52.524;13.422;2023-04-29T05:17:00;102.50;;;92.30;;
5710;SDS011;61291;52.524;13.422;2023-04-29T05:19:26;103.77;;;93.03;;
5710;SDS011;61291;52.524;13.422;2023-04-29T05:21:51;104.70;;;93.20;;
5710;SDS011;61291;52.524;13.422;2023-04-29T05:24:17;108.50;;;89.38;;
5710;SDS011;61291;52.524;13.422;2023-04-29T05:26:42;107.00;;;95.50;;
5710;SDS011;61291;52.524;13.422;2023-04-29T05:29:08;104.07;;;93.13;;
5710;SDS011;61291;52.524;13.422;2023-04-29T05:31:34;100.37;;;89.67;;
5710;SDS011;61291;52.524;13.422;2023-04-29T05:34:00;102.10;;;91.90;;
5710;SDS011;61291;52.524;13.422;2023-04-29T05:36:26;98.43;;;88.80;;
5710;SDS011;61291;52.524;13.422;2023-04-29T05:38:51;98.60;;;88.50;;
5710;SDS011;61291;52.524;13.422;2023-04-29T05:41:17;99.33;;;88.97;;
5710;SDS011;61291;52.524;13.422;2023-04-29T05:43:42;96.60;;;86.90;;
5710;SDS011;61291;52.524;13.422;2023-04-29T05:46:08;93.80;;;84.40;;
5710;SDS011;61291;52.524;13.422;2023-04-29T05:48:34;94.33;;;85.30;;
5710;SDS011;61291;52.524;13.422;2023-04-29T05:50:59;92.73;;;83.60;;
5710;SDS011;61291;52.524;13.422;2023-04-29T05:53:25;89.90;;;81.30;;
5710;SDS011;61291;52.524;13.422;2023-04-29T05:55:50;95.87;;;86.77;;
5710;SDS011;61291;52.524;13.422;2023-04-29T05:58:16;91.40;;;82.67;;
5710;SDS011;61291;52.524;13.422;2023-04-29T06:00:41;91.87;;;83.27;;
5710;SDS011;61291;52.524;13.422;2023-04-29T06:03:08;101.20;;;89.97;;
5710;SDS011;61291;52.524;13.422;2023-04-29T06:05:34;91.53;;;82.43;;
5710;SDS011;61291;52.524;13.422;2023-04-29T06:08:00;97.00;;;87.03;;
5710;SDS011;61291;52.524;13.422;2023-04-29T06:10:26;91.73;;;82.90;;
5710;SDS011;61291;52.524;13.422;2023-04-29T06:12:51;94.70;;;84.70;;
5710;SDS011;61291;52.524;13.422;2023-04-29T06:15:17;96.80;;;87.10;;
5710;SDS011;61291;52.524;13.422;2023-04-29T06:17:42;95.50;;;85.13;;
5710;SDS011;61291;52.524;13.422;2023-04-29T06:20:08;95.67;;;85.00;;
5710;SDS011;61291;52.524;13.422;2023-04-29T06:22:34;97.33;;;87.07;;
5710;SDS011;61291;52.524;13.422;2023-04-29T06:24:59;92.60;;;83.00;;
5710;SDS011;61291;52.524;13.422;2023-04-29T06:27:25;99.00;;;87.40;;
5710;SDS011;61291;52.524;13.422;2023-04-29T06:29:50;97.77;;;87.23;;
5710;SDS011;61291;52.524;13.422;2023-04-29T06:32:16;102.43;;;86.57;;
5710;SDS011;61291;52.524;13.422;2023-04-29T06:34:41;101.83;;;89.27;;
5710;SDS011;61291;52.524;13.422;2023-04-29T06:37:07;100.07;;;89.20;;
5710;SDS011;61291;52.524;13.422;2023-04-29T06:39:32;99.83;;;89.40;;
5710;SDS011;61291;52.524;13.422;2023-04-29T06:41:58;97.00;;;86.57;;
5710;SDS011;61291;52.524;13.422;2023-04-29T06:44:23;99.13;;;88.90;;
5710;SDS011;61291;52.524;13.422;2023-04-29T06:46:49;97.73;;;87.90;;
5710;SDS011;61291;52.524;13.422;2023-04-29T06:49:15;95.00;;;84.90;;
5710;SDS011;61291;52.524;13.422;2023-04-29T06:51:40;92.43;;;83.17;;
5710;SDS011;61291;52.524;13.422;2023-04-29T06:54:06;87.53;;;79.43;;
5710;SDS011;61291;52.524;13.422;2023-04-29T06:56:32;94.97;;;85.83;;
5710;SDS011;61291;52.524;13.422;2023-04-29T06:58:58;89.30;;;81.40;;
5710;SDS011;61291;52.524;13.422;2023-04-29T07:01:23;88.63;;;80.20;;
5710;SDS011;61291;52.524;13.422;2023-04-29T07:03:49;88.17;;;80.60;;
5710;SDS011;61291;52.524;13.422;2023-04-29T07:06:14;85.77;;;78.47;;
5710;SDS011;61291;52.524;13.422;2023-04-29T07:08:40;87.50;;;79.73;;
5710;SDS011;61291;52.524;13.422;2023-04-29T07:11:05;79.93;;;73.00;;
5710;SDS011;61291;52.524;13.422;2023-04-29T07:13:31;79.07;;;72.47;;
5710;SDS011;61291;52.524;13.422;2023-04-29T07:15:56;76.47;;;70.13;;
5710;SDS011;61291;52.524;13.422;2023-04-29T07:18:22;72.77;;;66.50;;
5710;SDS011;61291;52.524;13.422;2023-04-29T07:20:47;80.07;;;73.23;;
5710;SDS011;61291;52.524;13.422;2023-04-29T07:23:15;88.77;;;81.07;;
5710;SDS011;61291;52.524;13.422;2023-04-29T07:25:40;85.07;;;77.07;;
5710;SDS011;61291;52.524;13.422;2023-04-29T07:28:06;79.20;;;72.30;;
5710;SDS011;61291;52.524;13.422;2023-04-29T07:30:33;82.87;;;75.30;;
5710;SDS011;61291;52.524;13.422;2023-04-29T07:32:58;93.67;;;85.93;;
5710;SDS011;61291;52.524;13.422;2023-04-29T07:35:24;75.97;;;69.13;;
5710;SDS011;61291;52.524;13.422;2023-04-29T07:37:50;82.33;;;75.30;;
5710;SDS011;61291;52.524;13.422;2023-04-29T07:40:15;78.95;;;71.30;;
5710;SDS011;61291;52.524;13.422;2023-04-29T07:42:41;76.37;;;69.77;;
5710;SDS011;61291;52.524;13.422;2023-04-29T07:45:07;82.00;;;74.80;;
5710;SDS011;61291;52.524;13.422;2023-04-29T07:47:33;79.00;;;72.53;;
5710;SDS011;61291;52.524;13.422;2023-04-29T07:49:58;77.13;;;70.70;;
5710;SDS011;61291;52.524;13.422;2023-04-29T07:52:23;67.90;;;62.90;;
5710;SDS011;61291;52.524;13.422;2023-04-29T07:54:49;71.57;;;66.03;;
5710;SDS011;61291;52.524;13.422;2023-04-29T07:57:15;82.50;;;75.23;;
5710;SDS011;61291;52.524;13.422;2023-04-29T07:59:40;80.27;;;73.87;;
5710;SDS011;61291;52.524;13.422;2023-04-29T08:02:05;76.70;;;70.97;;
5710;SDS011;61291;52.524;13.422;2023-04-29T08:04:31;78.53;;;72.70;;
5710;SDS011;61291;52.524;13.422;2023-04-29T08:06:57;70.37;;;65.17;;
5710;SDS011;61291;52.524;13.422;2023-04-29T08:09:22;70.97;;;65.33;;
5710;SDS011;61291;52.524;13.422;2023-04-29T08:11:48;70.07;;;64.57;;
5710;SDS011;61291;52.524;13.422;2023-04-29T08:14:13;69.90;;;64.60;;
5710;SDS011;61291;52.524;13.422;2023-04-29T08:16:39;68.70;;;63.50;;
5710;SDS011;61291;52.524;13.422;2023-04-29T08:19:04;69.43;;;64.23;;
5710;SDS011;61291;52.524;13.422;2023-04-29T08:21:30;64.93;;;60.17;;
5710;SDS011;61291;52.524;13.422;2023-04-29T08:23:56;66.97;;;62.03;;
5710;SDS011;61291;52.524;13.422;2023-04-29T08:26:21;69.07;;;63.90;;
5710;SDS011;61291;52.524;13.422;2023-04-29T08:28:47;73.40;;;68.00;;
5710;SDS011;61291;52.524;13.422;2023-04-29T08:31:19;70.23;;;64.97;;
5710;SDS011;61291;52.524;13.422;2023-04-29T08:33:45;71.30;;;66.30;;
5710;SDS011;61291;52.524;13.422;2023-04-29T08:36:11;70.40;;;64.93;;
5710;SDS011;61291;52.524;13.422;2023-04-29T08:38:37;75.87;;;69.47;;
5710;SDS011;61291;52.524;13.422;2023-04-29T08:41:02;81.80;;;76.00;;
5710;SDS011;61291;52.524;13.422;2023-04-29T08:43:28;73.73;;;68.33;;
5710;SDS011;61291;52.524;13.422;2023-04-29T08:45:54;73.33;;;67.53;;
5710;SDS011;61291;52.524;13.422;2023-04-29T08:48:22;75.10;;;69.70;;
5710;SDS011;61291;52.524;13.422;2023-04-29T08:50:48;65.05;;;59.95;;
5710;SDS011;61291;52.524;13.422;2023-04-29T08:53:14;72.23;;;66.33;;
5710;SDS011;61291;52.524;13.422;2023-04-29T08:55:40;69.50;;;64.00;;
5710;SDS011;61291;52.524;13.422;2023-04-29T08:58:07;75.60;;;69.60;;
5710;SDS011;61291;52.524;13.422;2023-04-29T09:00:33;72.13;;;66.73;;
5710;SDS011;61291;52.524;13.422;2023-04-29T09:03:00;73.00;;;66.93;;
5710;SDS011;61291;52.524;13.422;2023-04-29T09:05:34;74.77;;;68.40;;
5710;SDS011;61291;52.524;13.422;2023-04-29T09:08:00;81.90;;;74.70;;
5710;SDS011;61291;52.524;13.422;2023-04-29T09:10:27;79.67;;;72.63;;
5710;SDS011;61291;52.524;13.422;2023-04-29T09:12:56;80.40;;;73.63;;
5710;SDS011;61291;52.524;13.422;2023-04-29T09:15:22;84.43;;;77.43;;
5710;SDS011;61291;52.524;13.422;2023-04-29T09:17:48;80.00;;;73.30;;
5710;SDS011;61291;52.524;13.422;2023-04-29T09:22:49;80.37;;;73.57;;
5710;SDS011;61291;52.524;13.422;2023-04-29T09:25:15;81.03;;;73.80;;
5710;SDS011;61291;52.524;13.422;2023-04-29T09:27:41;82.80;;;75.40;;
5710;SDS011;61291;52.524;13.422;2023-04-29T09:30:07;87.10;;;79.27;;
5710;SDS011;61291;52.524;13.422;2023-04-29T09:32:33;81.83;;;74.80;;
5710;SDS011;61291;52.524;13.422;2023-04-29T09:35:18;82.07;;;74.87;;
5710;SDS011;61291;52.524;13.422;2023-04-29T09:37:54;83.13;;;75.63;;
5710;SDS011;61291;52.524;13.422;2023-04-29T09:40:39;84.43;;;77.00;;
5710;SDS011;61291;52.524;13.422;2023-04-29T09:43:12;86.00;;;77.90;;
5710;SDS011;61291;52.524;13.422;2023-04-29T09:45:40;83.17;;;75.17;;
5710;SDS011;61291;52.524;13.422;2023-04-29T09:48:09;89.00;;;80.27;;
5710;SDS011;61291;52.524;13.422;2023-04-29T09:50:36;85.80;;;77.83;;
5710;SDS011;61291;52.524;13.422;2023-04-29T09:53:07;94.43;;;84.87;;
5710;SDS011;61291;52.524;13.422;2023-04-29T09:55:35;98.93;;;89.27;;
5710;SDS011;61291;52.524;13.422;2023-04-29T09:58:01;91.83;;;83.13;;
5710;SDS011;61291;52.524;13.422;2023-04-29T10:00:29;97.07;;;87.47;;
5710;SDS011;61291;52.524;13.422;2023-04-29T10:02:58;95.73;;;86.67;;
5710;SDS011;61291;52.524;13.422;2023-04-29T10:05:26;99.10;;;89.77;;
5710;SDS011;61291;52.524;13.422;2023-04-29T10:07:54;105.57;;;94.00;;
5710;SDS011;61291;52.524;13.422;2023-04-29T10:10:21;110.80;;;99.90;;
5710;SDS011;61291;52.524;13.422;2023-04-29T10:12:48;118.27;;;99.07;;
5710;SDS011;61291;52.524;13.422;2023-04-29T10:15:19;106.50;;;95.77;;
5710;SDS011;61291;52.524;13.422;2023-04-29T10:20:45;110.00;;;98.83;;
5710;SDS011;61291;52.524;13.422;2023-04-29T10:23:12;107.60;;;96.13;;
5710;SDS011;61291;52.524;13.422;2023-04-29T10:25:38;103.38;;;92.63;;
5710;SDS011;61291;52.524;13.422;2023-04-29T10:28:06;106.27;;;95.87;;
5710;SDS011;61291;52.524;13.422;2023-04-29T10:30:37;111.00;;;99.00;;
5710;SDS011;61291;52.524;13.422;2023-04-29T10:33:03;107.50;;;96.67;;
5710;SDS011;61291;52.524;13.422;2023-04-29T10:35:30;111.17;;;99.90;;
5710;SDS011;61291;52.524;13.422;2023-04-29T10:37:56;102.97;;;92.97;;
5710;SDS011;61291;52.524;13.422;2023-04-29T10:40:35;105.80;;;95.43;;
5710;SDS011;61291;52.524;13.422;2023-04-29T10:43:06;100.57;;;91.40;;
5710;SDS011;61291;52.524;13.422;2023-04-29T10:45:32;105.10;;;94.90;;
5710;SDS011;61291;52.524;13.422;2023-04-29T10:53:06;94.70;;;86.17;;
5710;SDS011;61291;52.524;13.422;2023-04-29T10:55:34;91.60;;;83.37;;
5710;SDS011;61291;52.524;13.422;2023-04-29T10:58:01;97.00;;;89.10;;
5710;SDS011;61291;52.524;13.422;2023-04-29T11:00:31;89.03;;;81.23;;
5710;SDS011;61291;52.524;13.422;2023-04-29T11:02:58;91.73;;;84.03;;
5710;SDS011;61291;52.524;13.422;2023-04-29T11:05:32;89.67;;;81.40;;
5710;SDS011;61291;52.524;13.422;2023-04-29T11:08:08;93.33;;;85.83;;
5710;SDS011;61291;52.524;13.422;2023-04-29T11:10:36;86.37;;;79.07;;
5710;SDS011;61291;52.524;13.422;2023-04-29T11:13:20;83.07;;;75.90;;
5710;SDS011;61291;52.524;13.422;2023-04-29T11:15:47;85.50;;;78.50;;
5710;SDS011;61291;52.524;13.422;2023-04-29T11:18:15;86.27;;;79.10;;
5710;SDS011;61291;52.524;13.422;2023-04-29T11:23:35;84.80;;;78.23;;
5710;SDS011;61291;52.524;13.422;2023-04-29T11:26:01;88.87;;;81.97;;
5710;SDS011;61291;52.524;13.422;2023-04-29T11:28:27;83.87;;;77.07;;
5710;SDS011;61291;52.524;13.422;2023-04-29T11:30:55;85.80;;;79.10;;
5710;SDS011;61291;52.524;13.422;2023-04-29T11:33:21;87.43;;;80.63;;
5710;SDS011;61291;52.524;13.422;2023-04-29T11:35:47;89.20;;;82.10;;
5710;SDS011;61291;52.524;13.422;2023-04-29T11:38:13;89.87;;;83.37;;
5710;SDS011;61291;52.524;13.422;2023-04-29T11:40:57;84.60;;;78.03;;
5710;SDS011;61291;52.524;13.422;2023-04-29T11:43:23;82.83;;;76.97;;
5710;SDS011;61291;52.524;13.422;2023-04-29T11:45:49;80.57;;;73.87;;
5710;SDS011;61291;52.524;13.422;2023-04-29T11:48:22;78.77;;;72.37;;
5710;SDS011;61291;52.524;13.422;2023-04-29T11:50:50;77.43;;;71.37;;
5710;SDS011;61291;52.524;13.422;2023-04-29T11:53:18;83.27;;;76.57;;
5710;SDS011;61291;52.524;13.422;2023-04-29T11:55:45;77.53;;;71.63;;
5710;SDS011;61291;52.524;13.422;2023-04-29T11:58:11;78.87;;;72.50;;
5710;SDS011;61291;52.524;13.422;2023-04-29T12:00:38;76.00;;;70.20;;
5710;SDS011;61291;52.524;13.422;2023-04-29T12:03:16;76.13;;;70.63;;
5710;SDS011;61291;52.524;13.422;2023-04-29T12:05:49;70.93;;;65.63;;
5710;SDS011;61291;52.524;13.422;2023-04-29T12:08:22;73.07;;;67.27;;
5710;SDS011;61291;52.524;13.422;2023-04-29T12:10:49;74.87;;;69.43;;
5710;SDS011;61291;52.524;13.422;2023-04-29T12:13:15;71.93;;;66.23;;
5710;SDS011;61291;52.524;13.422;2023-04-29T12:15:43;71.20;;;65.70;;
5710;SDS011;61291;52.524;13.422;2023-04-29T12:18:10;71.27;;;66.03;;
5710;SDS011;61291;52.524;13.422;2023-04-29T12:20:36;74.93;;;69.00;;
5710;SDS011;61291;52.524;13.422;2023-04-29T12:23:10;75.80;;;69.83;;
5710;SDS011;61291;52.524;13.422;2023-04-29T12:25:40;75.60;;;69.63;;
5710;SDS011;61291;52.524;13.422;2023-04-29T12:28:12;73.87;;;68.37;;
5710;SDS011;61291;52.524;13.422;2023-04-29T12:30:38;67.83;;;62.63;;
5710;SDS011;61291;52.524;13.422;2023-04-29T12:33:03;75.50;;;69.50;;
5710;SDS011;61291;52.524;13.422;2023-04-29T12:35:31;74.53;;;68.80;;
5710;SDS011;61291;52.524;13.422;2023-04-29T12:37:57;75.97;;;69.73;;
5710;SDS011;61291;52.524;13.422;2023-04-29T12:40:23;70.50;;;64.93;;
5710;SDS011;61291;52.524;13.422;2023-04-29T12:42:49;73.13;;;67.83;;
5710;SDS011;61291;52.524;13.422;2023-04-29T12:45:31;71.57;;;66.17;;
5710;SDS011;61291;52.524;13.422;2023-04-29T12:47:58;73.57;;;67.87;;
5710;SDS011;61291;52.524;13.422;2023-04-29T12:50:28;73.50;;;68.30;;
5710;SDS011;61291;52.524;13.422;2023-04-29T12:52:55;71.70;;;66.73;;
5710;SDS011;61291;52.524;13.422;2023-04-29T12:55:21;70.73;;;65.13;;
5710;SDS011;61291;52.524;13.422;2023-04-29T12:57:46;73.87;;;68.27;;
5710;SDS011;61291;52.524;13.422;2023-04-29T13:00:12;73.87;;;68.27;;
5710;SDS011;61291;52.524;13.422;2023-04-29T13:02:39;69.33;;;64.13;;
5710;SDS011;61291;52.524;13.422;2023-04-29T13:05:04;74.27;;;69.10;;
5710;SDS011;61291;52.524;13.422;2023-04-29T13:07:30;74.33;;;69.13;;
5710;SDS011;61291;52.524;13.422;2023-04-29T13:09:55;68.83;;;64.03;;
5710;SDS011;61291;52.524;13.422;2023-04-29T13:12:21;72.30;;;67.40;;
5710;SDS011;61291;52.524;13.422;2023-04-29T13:14:46;73.07;;;67.83;;
5710;SDS011;61291;52.524;13.422;2023-04-29T13:17:12;71.93;;;66.93;;
5710;SDS011;61291;52.524;13.422;2023-04-29T13:19:38;73.63;;;68.20;;
5710;SDS011;61291;52.524;13.422;2023-04-29T13:22:03;71.20;;;66.20;;
5710;SDS011;61291;52.524;13.422;2023-04-29T13:24:29;71.20;;;66.13;;
5710;SDS011;61291;52.524;13.422;2023-04-29T13:26:56;67.87;;;63.07;;
5710;SDS011;61291;52.524;13.422;2023-04-29T13:29:22;69.40;;;64.20;;
5710;SDS011;61291;52.524;13.422;2023-04-29T13:31:47;66.90;;;61.90;;
5710;SDS011;61291;52.524;13.422;2023-04-29T13:34:13;68.47;;;63.67;;
5710;SDS011;61291;52.524;13.422;2023-04-29T13:36:39;65.57;;;60.80;;
5710;SDS011;61291;52.524;13.422;2023-04-29T13:39:04;69.13;;;64.20;;
5710;SDS011;61291;52.524;13.422;2023-04-29T13:41:30;66.73;;;61.97;;
5710;SDS011;61291;52.524;13.422;2023-04-29T13:43:59;71.73;;;66.73;;
5710;SDS011;61291;52.524;13.422;2023-04-29T13:46:25;71.20;;;66.50;;
5710;SDS011;61291;52.524;13.422;2023-04-29T13:48:51;70.73;;;65.77;;
5710;SDS011;61291;52.524;13.422;2023-04-29T13:51:16;71.70;;;66.43;;
5710;SDS011;61291;52.524;13.422;2023-04-29T13:53:42;70.07;;;65.30;;
5710;SDS011;61291;52.524;13.422;2023-04-29T13:56:08;74.50;;;69.50;;
5710;SDS011;61291;52.524;13.422;2023-04-29T13:58:33;74.00;;;68.90;;
5710;SDS011;61291;52.524;13.422;2023-04-29T14:00:59;74.00;;;68.33;;
5710;SDS011;61291;52.524;13.422;2023-04-29T14:03:24;73.20;;;67.70;;
5710;SDS011;61291;52.524;13.422;2023-04-29T14:05:50;72.93;;;67.30;;
5710;SDS011;61291;52.524;13.422;2023-04-29T14:08:16;71.67;;;66.40;;
5710;SDS011;61291;52.524;13.422;2023-04-29T14:10:41;71.03;;;65.47;;
5710;SDS011;61291;52.524;13.422;2023-04-29T14:13:07;73.70;;;68.70;;
5710;SDS011;61291;52.524;13.422;2023-04-29T14:15:32;72.10;;;66.60;;
5710;SDS011;61291;52.524;13.422;2023-04-29T14:17:58;71.47;;;66.00;;
5710;SDS011;61291;52.524;13.422;2023-04-29T14:20:23;74.93;;;69.53;;
5710;SDS011;61291;52.524;13.422;2023-04-29T14:22:49;72.73;;;67.60;;
5710;SDS011;61291;52.524;13.422;2023-04-29T14:25:14;76.47;;;70.90;;
5710;SDS011;61291;52.524;13.422;2023-04-29T14:27:40;70.87;;;65.67;;
5710;SDS011;61291;52.524;13.422;2023-04-29T14:30:06;70.97;;;65.97;;
5710;SDS011;61291;52.524;13.422;2023-04-29T14:32:32;75.20;;;69.60;;
5710;SDS011;61291;52.524;13.422;2023-04-29T14:34:57;82.60;;;76.90;;
5710;SDS011;61291;52.524;13.422;2023-04-29T14:37:23;71.07;;;65.37;;
5710;SDS011;61291;52.524;13.422;2023-04-29T14:39:48;70.70;;;65.07;;